Terminal Aerodrome Forecast
Issued by NWS

Home | Current Version | Previous Version | Text Only | Print | Product List | Glossary On
Versions: 1 2 3 4 5 6 7 8 9 10 11 12 13 14 15 16 17 18 19 20 21 22
000
FTUS46 KLOX 230300 AAA
TAFLGB
TAF AMD
KLGB 230359Z 2304/2324 31006KT P6SM SKC
     FM231100 VRB03KT 6SM BR BKN007
     FM231600 19005KT P6SM SKC
     FM232200 30012KT P6SM SKC=

USA.gov is the U.S. government's official web portal to all federal, state and local government web resources and services.